Time;durP1;ratioP1;P1;durP2;ratioP2;P2;SDS_P1;SDS_P2;PMS_P1;PMS_P2;Temp;Humidity;BMP_temperature;BMP_pressure;BME280_temperature;BME280_humidity;BME280_pressure;Samples;Min_cycle;Max_cycle;Signal;HPM_P1;HPM_P2
2023/05/08 00:01:59;;;;;;;14.40;8.65;;;;;;;;;;5132288;27;20039;-71
2023/05/08 00:04:26;;;;;;;14.70;8.70;;;;;;;;;;5132244;27;20077;-71
2023/05/08 00:06:52;;;;;;;;;;;;;;;;;;5132761;27;20039;-70
2023/05/08 00:09:18;;;;;;;14.07;7.80;;;;;;;;;;5132377;27;20419;-71
2023/05/08 00:11:44;;;;;;;12.75;7.80;;;;;;;;;;5131651;27;20053;-70
2023/05/08 00:14:10;;;;;;;;;;;;;;;;;;5131637;27;20075;-71
2023/05/08 00:16:36;;;;;;;14.02;8.30;;;;;;;;;;5132458;27;19966;-70
2023/05/08 00:19:02;;;;;;;;;;;;;;;;;;5131865;27;20047;-70
2023/05/08 00:21:28;;;;;;;13.63;8.15;;;;;;;;;;5131810;27;20455;-72
2023/05/08 00:23:54;;;;;;;;;;;;;;;;;;5133000;27;20416;-70
2023/05/08 00:26:20;;;;;;;14.85;8.13;;;;;;;;;;5131273;27;19919;-71
2023/05/08 00:28:46;;;;;;;;;;;;;;;;;;5142686;27;20138;-70
2023/05/08 00:31:13;;;;;;;14.23;7.90;;;;;;;;;;5115303;27;20006;-71
2023/05/08 00:33:39;;;;;;;13.98;8.43;;;13.30;99.90;;;;;;5131666;27;20062;-70
2023/05/08 00:36:05;;;;;;;;;;;13.10;99.90;;;;;;5125153;27;20051;-70
2023/05/08 00:38:32;;;;;;;14.32;8.45;;;13.10;99.90;;;;;;5122537;27;19923;-70
2023/05/08 00:40:58;;;;;;;14.07;7.95;;;13.00;99.90;;;;;;5125716;27;20043;-71
2023/05/08 00:43:26;;;;;;;;;;;13.00;99.90;;;;;;5112530;27;20104;-71
2023/05/08 00:45:58;;;;;;;13.40;7.75;;;13.00;99.90;;;;;;5131958;27;19962;-70
2023/05/08 00:48:24;;;;;;;15.38;8.65;;;12.90;99.90;;;;;;5132109;27;20050;-71
2023/05/08 00:50:51;;;;;;;;;;;12.90;99.90;;;;;;5131712;27;20103;-70
2023/05/08 00:53:18;;;;;;;14.60;8.27;;;12.90;99.90;;;;;;5135949;27;19927;-70
2023/05/08 00:55:44;;;;;;;15.05;8.07;;;12.90;99.90;;;;;;5131581;27;20549;-70
2023/05/08 00:58:11;;;;;;;15.57;8.05;;;12.90;99.90;;;;;;5130292;27;20055;-70
2023/05/08 01:00:40;;;;;;;16.98;8.65;;;12.80;99.90;;;;;;5131868;27;20088;-70
2023/05/08 01:03:06;;;;;;;15.88;8.95;;;12.80;99.90;;;;;;5131008;27;20047;-73
2023/05/08 01:05:32;;;;;;;13.85;7.53;;;12.80;99.90;;;;;;5131389;27;20047;-70
2023/05/08 01:07:58;;;;;;;15.23;8.50;;;12.80;99.90;;;;;;5131425;27;20690;-70
2023/05/08 01:10:30;;;;;;;14.23;7.85;;;12.80;99.90;;;;;;5123136;27;20082;-71
2023/05/08 01:13:14;;;;;;;14.18;8.20;;;12.80;99.90;;;;;;5132565;27;20117;-70
2023/05/08 01:15:49;;;;;;;13.82;8.00;;;12.80;99.90;;;;;;5131655;27;20089;-70
2023/05/08 01:18:29;;;;;;;14.18;8.48;;;12.70;99.90;;;;;;5130650;27;20055;-70
2023/05/08 01:21:02;;;;;;;14.57;7.93;;;12.70;99.90;;;;;;5128585;27;20454;-73
2023/05/08 01:23:46;;;;;;;12.88;8.23;;;12.70;99.90;;;;;;5136014;27;20258;-73
2023/05/08 01:26:14;;;;;;;15.00;8.75;;;12.70;99.90;;;;;;5130500;27;20051;-73
2023/05/08 01:28:53;;;;;;;13.23;8.13;;;12.70;99.90;;;;;;5129854;27;20042;-73
2023/05/08 01:31:38;;;;;;;15.15;8.27;;;12.70;99.90;;;;;;5108977;28;20507;-73
2023/05/08 01:34:24;;;;;;;13.85;8.00;;;12.60;99.90;;;;;;5110434;28;20079;-73
2023/05/08 01:36:55;;;;;;;14.07;8.20;;;12.60;99.90;;;;;;5108572;28;20144;-73
2023/05/08 01:39:30;;;;;;;14.85;8.40;;;12.50;99.90;;;;;;5110593;28;20400;-73
2023/05/08 01:41:57;;;;;;;13.88;8.45;;;12.50;99.90;;;;;;5110103;28;20119;-73
2023/05/08 01:44:32;;;;;;;12.65;7.30;;;12.40;99.90;;;;;;5109705;28;20036;-73
2023/05/08 01:46:59;;;;;;;17.30;8.93;;;12.40;99.90;;;;;;5110518;28;20044;-73
2023/05/08 01:49:45;;;;;;;13.38;7.97;;;12.30;99.90;;;;;;5107516;28;20052;-73
2023/05/08 01:52:33;;;;;;;15.98;8.30;;;12.20;99.90;;;;;;5109767;28;20153;-73
2023/05/08 01:55:03;;;;;;;14.95;7.68;;;12.20;99.90;;;;;;5110994;28;20070;-73
2023/05/08 01:57:33;;;;;;;15.23;7.53;;;12.10;99.90;;;;;;5109445;28;20040;-73
2023/05/08 02:00:01;;;;;;;14.30;8.52;;;12.10;99.90;;;;;;5108847;28;20043;-73
2023/05/08 02:02:30;;;;;;;15.05;8.73;;;12.10;99.90;;;;;;5109803;28;20433;-73
2023/05/08 02:04:56;;;;;;;13.95;8.15;;;12.00;99.90;;;;;;5102710;28;20077;-73
2023/05/08 02:07:24;;;;;;;16.27;8.43;;;12.00;99.90;;;;;;5105134;28;20052;-73
2023/05/08 02:09:52;;;;;;;13.45;7.78;;;12.00;99.90;;;;;;5099850;28;20083;-73
2023/05/08 02:12:20;;;;;;;14.73;8.15;;;11.90;99.90;;;;;;5109215;28;20052;-73
2023/05/08 02:14:48;;;;;;;16.38;8.52;;;11.90;99.90;;;;;;5109260;28;20415;-73
2023/05/08 02:17:16;;;;;;;13.10;8.18;;;11.80;99.90;;;;;;5109739;28;20055;-73
2023/05/08 02:19:43;;;;;;;14.88;7.90;;;11.80;99.90;;;;;;5109315;28;20039;-73
2023/05/08 02:22:09;;;;;;;13.00;7.55;;;11.80;99.90;;;;;;5110049;28;20051;-73
2023/05/08 02:24:37;;;;;;;14.00;7.95;;;11.70;99.90;;;;;;5110028;28;20792;-73
2023/05/08 02:27:04;;;;;;;14.43;7.82;;;11.70;99.90;;;;;;5108562;28;20051;-73
2023/05/08 02:29:30;;;;;;;14.40;7.82;;;11.70;99.90;;;;;;5106981;28;20082;-73
2023/05/08 02:31:59;;;;;;;14.82;8.10;;;11.60;99.90;;;;;;5110388;28;20132;-72
2023/05/08 02:34:25;;;;;;;15.73;8.32;;;11.60;99.90;;;;;;5109102;28;20039;-73
2023/05/08 02:36:53;;;;;;;13.40;7.70;;;11.60;99.90;;;;;;5111724;28;20744;-73
2023/05/08 02:39:20;;;;;;;14.55;8.50;;;11.60;99.90;;;;;;5112105;28;20401;-73
2023/05/08 02:41:46;;;;;;;15.13;7.55;;;11.60;99.90;;;;;;5113119;28;20058;-73
2023/05/08 02:44:13;;;;;;;14.55;7.55;;;11.60;99.90;;;;;;5113556;28;20533;-73
2023/05/08 02:46:38;;;;;;;;;;;11.50;99.90;;;;;;5113750;28;20143;-73
2023/05/08 02:49:07;;;;;;;14.07;7.97;;;11.50;99.90;;;;;;5112101;28;20030;-73
2023/05/08 02:51:45;;;;;;;14.50;8.05;;;11.50;99.90;;;;;;5111612;28;20377;-73
2023/05/08 02:54:27;;;;;;;14.73;8.43;;;11.50;99.90;;;;;;5113766;28;20128;-73
2023/05/08 02:57:02;;;;;;;12.60;7.38;;;11.40;99.90;;;;;;5112749;28;20180;-73
2023/05/08 02:59:36;;;;;;;14.07;7.95;;;11.40;99.90;;;;;;5108575;28;20051;-73
2023/05/08 03:02:36;;;;;;;14.95;8.30;;;11.40;99.90;;;;;;5113861;28;20189;-73
2023/05/08 03:05:14;;;;;;;14.57;8.25;;;11.40;99.90;;;;;;5086256;28;20076;-73
2023/05/08 03:07:42;;;;;;;13.70;7.95;;;11.40;99.90;;;;;;5112872;28;20043;-73
2023/05/08 03:10:15;;;;;;;15.75;8.77;;;11.40;99.90;;;;;;5112490;28;20408;-73
2023/05/08 03:12:47;;;;;;;15.48;8.07;;;11.40;99.90;;;;;;5111124;28;20248;-73
2023/05/08 03:15:32;;;;;;;13.85;8.05;;;11.30;99.90;;;;;;5113524;28;20130;-73
2023/05/08 03:18:02;;;;;;;13.10;7.70;;;11.30;99.90;;;;;;5111666;28;20447;-73
2023/05/08 03:20:34;;;;;;;16.88;8.75;;;11.30;99.90;;;;;;5112640;28;20088;-73
2023/05/08 03:23:03;;;;;;;16.13;7.93;;;11.30;99.90;;;;;;5113465;28;20043;-73
2023/05/08 03:25:31;;;;;;;17.88;8.75;;;11.30;99.90;;;;;;5112958;28;20402;-73
2023/05/08 03:27:58;;;;;;;15.25;7.57;;;11.20;99.90;;;;;;5110134;28;20804;-73
2023/05/08 03:30:26;;;;;;;13.57;7.63;;;11.20;99.90;;;;;;5124227;27;20051;-73
2023/05/08 03:32:53;;;;;;;13.40;7.70;;;11.20;99.90;;;;;;5116793;27;20402;-73
2023/05/08 03:35:20;;;;;;;13.98;8.00;;;11.20;99.90;;;;;;5154078;27;20054;-73
2023/05/08 03:37:49;;;;;;;14.10;7.72;;;11.10;99.90;;;;;;5154040;27;20395;-74
2023/05/08 03:40:14;;;;;;;14.00;8.00;;;11.10;99.90;;;;;;5136188;27;20046;-73
2023/05/08 03:42:41;;;;;;;13.73;8.30;;;11.10;99.90;;;;;;5152920;27;20108;-73
2023/05/08 03:45:09;;;;;;;13.52;7.53;;;11.10;99.90;;;;;;5154305;27;20035;-73
2023/05/08 03:47:35;;;;;;;13.70;7.47;;;11.10;99.90;;;;;;5120050;27;20062;-73
2023/05/08 03:50:02;;;;;;;14.43;8.35;;;11.10;99.90;;;;;;5132797;27;20046;-73
2023/05/08 03:52:29;;;;;;;14.82;8.35;;;11.10;99.90;;;;;;5132950;27;20039;-73
2023/05/08 03:54:54;;;;;;;15.40;7.97;;;11.10;99.90;;;;;;5133073;27;20050;-73
2023/05/08 03:57:21;;;;;;;14.07;8.02;;;11.10;99.90;;;;;;5132312;27;20035;-73
2023/05/08 04:00:00;;;;;;;13.43;7.55;;;11.10;99.90;;;;;;5148391;27;20050;-73
2023/05/08 04:03:11;;;;;;;16.17;7.90;;;11.20;99.90;;;;;;5131960;27;20802;-73
2023/05/08 04:05:46;;;;;;;14.10;8.02;;;11.20;99.90;;;;;;5124864;27;20464;-73
2023/05/08 04:08:21;;;;;;;14.80;7.72;;;11.20;99.90;;;;;;5133076;27;20062;-73
2023/05/08 04:11:01;;;;;;;17.80;8.52;;;11.20;99.90;;;;;;5114307;27;20051;-73
2023/05/08 04:13:30;;;;;;;17.08;8.32;;;11.20;99.90;;;;;;5132719;27;20406;-74
2023/05/08 04:16:10;;;;;;;14.13;7.95;;;11.20;99.90;;;;;;5129926;27;20163;-73
2023/05/08 04:18:41;;;;;;;15.10;7.95;;;11.20;99.90;;;;;;5133985;27;20062;-73
2023/05/08 04:21:10;;;;;;;14.50;8.13;;;11.20;99.90;;;;;;5134222;27;20046;-73
2023/05/08 04:23:38;;;;;;;12.90;7.65;;;11.20;99.90;;;;;;5152954;27;20050;-73
2023/05/08 04:26:05;;;;;;;18.08;8.68;;;11.20;99.90;;;;;;5135138;27;20476;-73
2023/05/08 04:28:32;;;;;;;16.40;8.20;;;11.20;99.90;;;;;;5151928;27;20122;-73
2023/05/08 04:30:58;;;;;;;15.30;8.27;;;11.20;99.90;;;;;;5152832;27;20073;-73
2023/05/08 04:33:24;;;;;;;15.00;8.32;;;11.20;99.90;;;;;;5152737;27;20051;-73
2023/05/08 04:35:50;;;;;;;15.85;8.90;;;11.20;99.90;;;;;;5127016;27;20047;-73
2023/05/08 04:38:15;;;;;;;14.02;7.38;;;11.30;99.90;;;;;;5135136;27;20121;-73
2023/05/08 04:40:41;;;;;;;14.18;8.10;;;11.30;99.90;;;;;;5152106;27;20601;-73
2023/05/08 04:43:07;;;;;;;13.65;8.10;;;11.30;99.90;;;;;;5133847;27;20061;-73
2023/05/08 04:45:33;;;;;;;14.20;7.50;;;11.30;99.90;;;;;;5117038;27;20053;-73
2023/05/08 04:47:58;;;;;;;17.55;8.00;;;11.30;99.90;;;;;;5152119;27;20050;-73
2023/05/08 04:50:24;;;;;;;14.18;7.82;;;11.30;99.90;;;;;;5152406;27;20039;-73
2023/05/08 04:52:50;;;;;;;13.95;8.00;;;11.30;99.90;;;;;;5152354;27;20162;-73
2023/05/08 04:55:16;;;;;;;16.33;7.88;;;11.30;99.90;;;;;;5134211;27;20038;-73
2023/05/08 04:57:41;;;;;;;13.90;8.05;;;11.30;99.90;;;;;;5151416;27;20077;-73
2023/05/08 05:00:08;;;;;;;14.48;8.27;;;11.30;99.90;;;;;;5132246;27;20137;-73
2023/05/08 05:02:33;;;;;;;13.80;7.28;;;11.30;99.90;;;;;;5131444;27;20458;-73
2023/05/08 05:05:00;;;;;;;14.05;7.85;;;11.30;99.90;;;;;;5149145;27;20059;-74
2023/05/08 05:07:25;;;;;;;15.73;8.27;;;11.30;99.90;;;;;;5152073;27;20046;-73
2023/05/08 05:09:51;;;;;;;13.88;7.78;;;11.30;99.90;;;;;;5144787;27;20637;-73
2023/05/08 05:12:17;;;;;;;15.07;8.13;;;11.30;99.90;;;;;;5112678;27;20065;-73
2023/05/08 05:14:42;;;;;;;13.95;8.02;;;11.30;99.90;;;;;;5131659;27;20042;-73
2023/05/08 05:17:08;;;;;;;13.05;7.43;;;11.20;99.90;;;;;;5131461;27;20063;-73
2023/05/08 05:19:34;;;;;;;13.05;8.07;;;11.20;99.90;;;;;;5113046;27;20051;-74
2023/05/08 05:21:59;;;;;;;12.98;7.60;;;11.20;99.90;;;;;;5131218;27;20043;-73
2023/05/08 05:24:25;;;;;;;13.43;7.40;;;11.20;99.90;;;;;;5132441;27;20148;-73
2023/05/08 05:26:50;;;;;;;11.90;7.07;;;11.10;99.90;;;;;;5112187;27;20031;-73
2023/05/08 05:29:16;;;;;;;12.73;7.32;;;11.10;99.90;;;;;;5136072;27;20094;-72
2023/05/08 05:31:42;;;;;;;13.27;7.60;;;11.10;99.90;;;;;;5151815;27;20368;-74
2023/05/08 05:34:08;;;;;;;15.70;8.38;;;11.10;99.90;;;;;;5151858;27;20043;-73
2023/05/08 05:36:33;;;;;;;14.05;7.82;;;11.20;99.90;;;;;;5147127;27;20472;-73
2023/05/08 05:38:59;;;;;;;12.93;7.45;;;11.20;99.90;;;;;;5112734;28;20549;-73
2023/05/08 05:41:25;;;;;;;14.05;8.07;;;11.20;99.90;;;;;;5130969;28;20043;-73
2023/05/08 05:43:50;;;;;;;12.80;7.43;;;11.20;99.90;;;;;;5112255;28;20058;-73
2023/05/08 05:46:16;;;;;;;12.20;7.13;;;11.30;99.90;;;;;;5121045;27;20078;-73
2023/05/08 05:48:42;;;;;;;;;;;11.30;99.90;;;;;;5130731;28;20047;-73
2023/05/08 05:51:08;;;;;;;13.93;7.75;;;11.30;99.90;;;;;;5131820;27;19923;-73
2023/05/08 05:53:33;;;;;;;13.93;7.68;;;11.40;99.90;;;;;;5133148;27;20507;-73
2023/05/08 05:55:59;;;;;;;11.70;6.75;;;11.40;99.90;;;;;;5133570;27;20484;-73
2023/05/08 05:58:25;;;;;;;12.43;7.13;;;11.50;99.90;;;;;;5151053;27;20042;-73
2023/05/08 06:00:51;;;;;;;12.88;6.95;;;11.50;99.90;;;;;;5151620;27;20043;-73
2023/05/08 06:03:16;;;;;;;13.88;6.90;;;11.60;99.90;;;;;;5151576;27;20058;-73
2023/05/08 06:05:42;;;;;;;12.48;7.07;;;11.70;99.90;;;;;;5150493;27;20107;-73
2023/05/08 06:08:08;;;;;;;13.05;7.35;;;11.70;99.90;;;;;;5144618;27;20053;-73
2023/05/08 06:10:34;;;;;;;11.95;7.00;;;11.70;99.90;;;;;;5127516;27;20074;-74
2023/05/08 06:13:00;;;;;;;12.93;7.30;;;11.80;99.90;;;;;;5141746;27;20043;-77
2023/05/08 06:15:26;;;;;;;14.40;7.72;;;11.80;99.90;;;;;;5117127;27;20066;-78
2023/05/08 06:17:51;;;;;;;13.75;7.45;;;11.90;99.90;;;;;;5134170;27;20046;-76
2023/05/08 06:20:17;;;;;;;11.57;6.85;;;12.00;99.90;;;;;;5134807;27;20055;-77
2023/05/08 06:22:43;;;;;;;12.43;7.00;;;12.00;99.90;;;;;;5134836;27;20392;-78
2023/05/08 06:25:09;;;;;;;11.40;6.60;;;12.10;99.90;;;;;;5100844;27;20047;-75
2023/05/08 06:27:35;;;;;;;11.57;7.07;;;12.00;99.90;;;;;;5134136;27;20050;-77
2023/05/08 06:30:03;;;;;;;12.30;6.93;;;12.10;99.90;;;;;;5153746;27;20084;-77
2023/05/08 06:32:29;;;;;;;12.25;6.88;;;12.10;99.90;;;;;;5155159;27;20051;-77
2023/05/08 06:34:54;;;;;;;12.07;7.30;;;12.10;99.90;;;;;;5140534;27;20051;-77
2023/05/08 06:37:20;;;;;;;11.70;6.88;;;12.10;99.90;;;;;;5138392;27;20059;-77
2023/05/08 06:39:46;;;;;;;12.52;7.53;;;12.20;99.90;;;;;;5134157;27;20047;-77
2023/05/08 06:42:11;;;;;;;14.13;7.22;;;12.20;99.90;;;;;;5150938;27;20094;-78
2023/05/08 06:44:37;;;;;;;14.70;6.82;;;12.30;99.90;;;;;;5136959;27;20051;-77
2023/05/08 06:47:03;;;;;;;11.27;6.63;;;12.30;99.90;;;;;;5135692;27;20133;-77
2023/05/08 06:49:28;;;;;;;11.88;7.40;;;12.30;99.90;;;;;;5155142;27;20058;-77
2023/05/08 06:51:54;;;;;;;11.90;6.68;;;12.40;99.90;;;;;;5135824;27;20035;-77
2023/05/08 06:54:20;;;;;;;15.40;7.88;;;12.50;99.90;;;;;;5136897;27;20057;-77
2023/05/08 06:56:45;;;;;;;11.20;6.72;;;12.60;99.90;;;;;;5137807;27;20047;-77
2023/05/08 06:59:11;;;;;;;12.73;7.45;;;12.60;99.90;;;;;;5134375;27;20042;-77
2023/05/08 07:01:37;;;;;;;12.00;7.18;;;12.70;99.90;;;;;;5152028;27;20125;-77
2023/05/08 07:04:03;;;;;;;12.60;6.78;;;12.80;99.90;;;;;;5129508;27;20533;-77
2023/05/08 07:06:33;;;;;;;13.27;7.15;;;12.80;99.90;;;;;;5133651;27;20514;-77
2023/05/08 07:08:58;;;;;;;13.90;6.60;;;12.90;99.90;;;;;;5118386;27;20040;-79
2023/05/08 07:11:24;;;;;;;13.02;6.70;;;13.00;99.90;;;;;;5143351;27;20042;-78
2023/05/08 07:13:50;;;;;;;10.43;6.60;;;13.00;99.90;;;;;;5133009;27;20506;-77
2023/05/08 07:16:16;;;;;;;14.40;6.50;;;13.10;99.90;;;;;;5134071;27;20051;-77
2023/05/08 07:18:42;;;;;;;11.65;7.03;;;13.20;99.90;;;;;;5133568;27;20454;-77
2023/05/08 07:21:08;;;;;;;12.38;7.60;;;13.30;99.90;;;;;;5137401;27;20053;-76
2023/05/08 07:23:34;;;;;;;12.43;6.50;;;13.40;99.90;;;;;;5122794;27;20075;-73
2023/05/08 07:26:00;;;;;;;12.10;6.90;;;13.40;99.90;;;;;;5133506;27;20078;-73
2023/05/08 07:28:26;;;;;;;13.98;7.50;;;13.50;99.90;;;;;;5101706;27;20104;-73
2023/05/08 07:30:51;;;;;;;13.40;7.82;;;13.50;99.90;;;;;;5132620;27;20055;-73
2023/05/08 07:33:18;;;;;;;15.85;8.80;;;13.60;99.90;;;;;;5132719;27;20085;-73
2023/05/08 07:35:44;;;;;;;15.45;8.05;;;13.60;99.90;;;;;;5132619;27;20168;-73
2023/05/08 07:38:09;;;;;;;;;;;13.70;99.90;;;;;;5133201;27;20047;-73
2023/05/08 07:40:35;;;;;;;16.00;7.90;;;13.70;99.90;;;;;;5143950;27;19926;-73
2023/05/08 07:43:01;;;;;;;14.25;8.10;;;13.80;99.90;;;;;;5134748;27;20043;-73
2023/05/08 07:45:26;;;;;;;13.38;7.72;;;13.80;99.90;;;;;;5133891;27;20480;-73
2023/05/08 07:47:57;;;;;;;15.90;8.45;;;13.90;99.90;;;;;;5132041;27;20051;-73
2023/05/08 07:50:25;;;;;;;13.57;8.65;;;14.00;99.90;;;;;;5131458;27;20047;-73
2023/05/08 07:52:51;;;;;;;16.45;7.72;;;14.00;99.90;;;;;;5114632;27;20434;-79
2023/05/08 07:55:18;;;;;;;11.35;7.10;;;14.10;99.90;;;;;;5128534;27;20116;-75
2023/05/08 07:57:44;;;;;;;14.23;8.38;;;14.20;99.90;;;;;;5121567;27;20043;-74
2023/05/08 08:00:12;;;;;;;12.63;7.65;;;14.20;99.90;;;;;;5114340;27;20545;-78
2023/05/08 08:02:38;;;;;;;13.80;7.88;;;14.20;99.90;;;;;;5132735;27;20126;-78
2023/05/08 08:05:04;;;;;;;15.05;8.15;;;14.30;99.90;;;;;;5132067;27;20043;-77
2023/05/08 08:07:33;;;;;;;12.82;7.45;;;14.40;99.90;;;;;;5132192;27;20047;-75
2023/05/08 08:10:00;;;;;;;21.23;7.97;;;14.40;99.90;;;;;;5114613;27;20070;-69
2023/05/08 08:12:27;;;;;;;13.15;8.05;;;14.50;99.90;;;;;;5131517;27;20086;-77
2023/05/08 08:14:53;;;;;;;12.60;7.55;;;14.60;99.90;;;;;;5133097;27;20043;-79
2023/05/08 08:17:19;;;;;;;16.13;7.38;;;14.70;99.90;;;;;;5113722;27;20051;-76
2023/05/08 08:19:44;;;;;;;15.07;8.45;;;14.80;99.90;;;;;;5132661;27;20067;-72
2023/05/08 08:22:10;;;;;;;14.00;7.82;;;14.90;99.90;;;;;;5113402;27;20043;-76
2023/05/08 08:24:36;;;;;;;13.43;7.88;;;15.00;99.90;;;;;;5114188;27;20081;-74
2023/05/08 08:27:03;;;;;;;13.23;7.95;;;15.10;99.90;;;;;;5078479;27;20083;-69
2023/05/08 08:29:29;;;;;;;13.30;7.88;;;15.20;99.90;;;;;;5113532;27;20047;-77
2023/05/08 08:31:55;;;;;;;;;;;15.30;99.90;;;;;;5114481;27;20081;-78
2023/05/08 08:34:21;;;;;;;15.82;7.72;;;15.30;99.90;;;;;;5113622;27;19926;-72
2023/05/08 08:36:47;;;;;;;15.98;7.40;;;15.40;99.90;;;;;;5131073;27;20040;-72
2023/05/08 08:39:13;;;;;;;12.88;7.78;;;15.50;99.90;;;;;;5131978;27;20388;-75
2023/05/08 08:41:39;;;;;;;12.82;7.75;;;15.50;99.90;;;;;;5112724;27;20042;-76
2023/05/08 08:44:05;;;;;;;;;;;15.50;99.90;;;;;;5113912;27;20047;-75
2023/05/08 08:46:34;;;;;;;14.02;7.93;;;15.50;99.90;;;;;;5113769;27;19933;-75
2023/05/08 08:49:03;;;;;;;16.92;7.97;;;15.60;99.90;;;;;;5112922;27;20564;-84
2023/05/08 08:51:43;;;;;;;14.80;8.32;;;15.60;99.90;;;;;;5096455;27;20507;-80
2023/05/08 08:54:16;;;;;;;14.48;8.15;;;15.70;99.90;;;;;;5096674;27;20078;-81
2023/05/08 08:56:44;;;;;;;12.48;7.88;;;15.80;99.90;;;;;;5111925;27;20055;-80
2023/05/08 08:59:12;;;;;;;15.57;9.05;;;15.80;99.90;;;;;;5131495;27;20043;-76
2023/05/08 09:01:40;;;;;;;13.18;8.05;;;15.90;99.90;;;;;;5134049;27;20070;-75
2023/05/08 09:04:06;;;;;;;15.73;8.48;;;16.00;99.90;;;;;;5106535;27;20107;-75
2023/05/08 09:06:36;;;;;;;14.88;7.28;;;16.10;99.90;;;;;;5128047;27;20099;-81
2023/05/08 09:09:02;;;;;;;16.55;9.07;;;16.30;99.90;;;;;;5133913;27;20077;-77
2023/05/08 09:11:28;;;;;;;17.42;8.48;;;16.50;99.90;;;;;;5133060;27;20046;-78
2023/05/08 09:13:55;;;;;;;14.70;8.18;;;16.60;99.90;;;;;;5134250;27;20049;-77
2023/05/08 09:16:20;;;;;;;;;;;16.70;99.90;;;;;;5107644;27;20116;-77
2023/05/08 09:18:46;;;;;;;13.57;8.10;;;16.90;99.90;;;;;;5114172;27;19931;-77
2023/05/08 09:21:12;;;;;;;13.80;8.38;;;17.00;99.90;;;;;;5112175;28;20472;-77
2023/05/08 09:24:02;;;;;;;14.20;8.43;;;17.20;99.90;;;;;;5113708;27;20110;-76
2023/05/08 09:26:38;;;;;;;16.30;8.07;;;17.30;99.90;;;;;;5144639;27;20617;-76
2023/05/08 09:29:12;;;;;;;16.20;9.13;;;17.40;99.90;;;;;;5151874;27;20082;-74
2023/05/08 09:31:41;;;;;;;17.50;8.63;;;17.60;99.90;;;;;;5146329;27;20522;-70
2023/05/08 09:34:08;;;;;;;42.00;9.95;;;17.70;99.90;;;;;;5151568;27;20092;-70
2023/05/08 09:36:34;;;;;;;15.10;8.20;;;17.90;99.90;;;;;;5132911;27;20038;-72
2023/05/08 09:39:00;;;;;;;;;;;18.00;99.90;;;;;;5152502;27;20039;-72
2023/05/08 09:41:26;;;;;;;14.75;8.65;;;18.20;99.90;;;;;;5115848;28;19923;-70
2023/05/08 09:44:02;;;;;;;;;;;18.30;99.90;;;;;;5113597;28;20384;-70
2023/05/08 09:46:28;;;;;;;12.75;8.00;;;18.50;99.90;;;;;;5134366;27;19980;-70
2023/05/08 09:48:55;;;;;;;;;;;18.60;99.90;;;;;;5135316;27;20047;-73
2023/05/08 09:51:22;;;;;;;16.88;8.82;;;18.70;99.90;;;;;;5119003;27;20428;-73
2023/05/08 09:53:52;;;;;;;12.52;8.35;;;18.60;99.90;;;;;;5112017;27;20514;-71
2023/05/08 09:56:38;;;;;;;13.90;8.80;;;18.50;99.90;;;;;;5115682;27;20054;-71
2023/05/08 09:59:27;;;;;;;14.55;8.68;;;18.60;99.90;;;;;;5153341;27;20125;-71
2023/05/08 10:01:54;;;;;;;14.82;9.20;;;18.70;99.90;;;;;;5156117;27;20047;-72
2023/05/08 10:04:34;;;;;;;13.30;8.73;;;18.80;99.90;;;;;;5122850;27;20790;-73
2023/05/08 10:07:00;;;;;;;13.60;8.75;;;18.90;99.90;;;;;;5134832;27;20369;-72
2023/05/08 10:09:26;;;;;;;14.93;8.63;;;19.10;99.90;;;;;;5106548;27;20043;-72
2023/05/08 10:11:53;;;;;;;;;;;19.20;99.90;;;;;;5155388;27;20038;-72
2023/05/08 10:14:20;;;;;;;13.15;8.43;;;19.50;99.90;;;;;;5136023;27;19919;-72
2023/05/08 10:16:51;;;;;;;13.48;8.32;;;19.80;99.90;;;;;;5144646;27;20123;-72
2023/05/08 10:19:22;;;;;;;12.25;8.15;;;20.00;99.90;;;;;;5115863;27;20080;-72
2023/05/08 10:21:50;;;;;;;15.02;9.10;;;20.00;99.90;;;;;;5134263;27;20131;-73
2023/05/08 10:24:20;;;;;;;12.80;8.80;;;19.90;99.90;;;;;;5134603;27;20536;-73
2023/05/08 10:26:56;;;;;;;13.05;8.68;;;19.90;99.90;;;;;;5099159;27;20062;-73
2023/05/08 10:29:32;;;;;;;14.40;8.65;;;19.90;99.90;;;;;;5133869;27;20051;-71
2023/05/08 10:31:58;;;;;;;13.57;8.70;;;20.00;99.90;;;;;;5116615;27;20148;-71
2023/05/08 10:34:26;;;;;;;12.90;8.35;;;20.00;99.90;;;;;;5118365;27;20488;-74
2023/05/08 10:36:53;;;;;;;15.15;9.00;;;19.90;99.90;;;;;;5125527;27;20083;-73
2023/05/08 10:39:19;;;;;;;14.90;8.70;;;19.80;99.90;;;;;;5134382;27;20503;-75
2023/05/08 10:41:47;;;;;;;15.48;9.02;;;19.80;99.90;;;;;;5133758;27;20051;-73
2023/05/08 10:44:14;;;;;;;15.02;9.13;;;19.80;99.90;;;;;;5133942;27;20050;-81
2023/05/08 10:47:07;;;;;;;15.55;9.25;;;19.80;99.90;;;;;;5116037;27;20046;-71
2023/05/08 10:49:54;;;;;;;17.45;9.00;;;19.90;99.90;;;;;;5133610;27;20074;-74
2023/05/08 10:52:27;;;;;;;13.88;8.80;;;20.00;99.90;;;;;;5115139;27;20112;-76
2023/05/08 10:54:52;;;;;;;16.73;9.45;;;20.10;99.90;;;;;;5136225;27;20042;-75
2023/05/08 10:57:18;;;;;;;;;;;20.20;99.90;;;;;;5105310;27;20130;-75
2023/05/08 10:59:45;;;;;;;17.33;9.07;;;20.40;99.90;;;;;;5136376;27;19919;-72
2023/05/08 11:02:12;;;;;;;16.70;9.93;;;20.70;99.90;;;;;;5153830;27;20118;-72
2023/05/08 11:04:38;;;;;;;14.82;8.80;;;20.80;99.90;;;;;;5154179;27;20043;-72
2023/05/08 11:07:04;;;;;;;;;;;20.90;99.90;;;;;;5154137;27;20068;-72
2023/05/08 11:09:42;;;;;;;17.02;9.63;;;20.90;99.90;;;;;;5133788;27;19965;-72
2023/05/08 11:12:24;;;;;;;15.18;9.65;;;20.90;99.90;;;;;;5114885;27;20480;-71
2023/05/08 11:15:05;;;;;;;16.55;9.82;;;20.90;99.90;;;;;;5133978;27;20092;-66
2023/05/08 11:17:32;;;;;;;16.67;9.25;;;21.10;99.90;;;;;;5133104;27;20039;-74
2023/05/08 11:20:06;;;;;;;15.75;9.40;;;21.30;99.90;;;;;;5133385;27;20039;-76
2023/05/08 11:22:33;;;;;;;13.65;9.18;;;21.50;99.90;;;;;;5098364;27;20039;-73
2023/05/08 11:24:58;;;;;;;16.30;8.88;;;21.80;99.90;;;;;;5137708;27;20046;-75
2023/05/08 11:27:49;;;;;;;15.15;9.38;;;22.10;99.90;;;;;;5131689;27;20117;-72
2023/05/08 11:30:36;;;;;;;15.00;9.65;;;22.40;99.90;;;;;;5113995;27;20553;-73
2023/05/08 11:33:05;;;;;;;16.95;9.48;;;22.70;99.90;;;;;;5133023;27;20054;-71
2023/05/08 11:35:53;;;;;;;14.13;9.35;;;23.00;99.90;;;;;;5114275;27;20651;-72
2023/05/08 11:38:34;;;;;;;14.20;9.20;;;23.40;99.90;;;;;;5134642;27;20131;-73
2023/05/08 11:41:18;;;;;;;14.57;8.30;;;23.90;99.90;;;;;;5115537;27;20084;-72
2023/05/08 11:44:04;;;;;;;13.77;7.50;;;24.40;99.90;;;;;;5132973;27;20048;-73
2023/05/08 11:46:54;;;;;;;17.05;8.93;;;24.80;99.90;;;;;;5129436;27;20496;-72
2023/05/08 11:49:22;;;;;;;13.48;9.15;;;25.40;99.90;;;;;;5127338;27;20105;-75
2023/05/08 11:51:53;;;;;;;14.02;8.00;;;26.00;97.40;;;;;;5132308;27;20051;-69
2023/05/08 11:54:20;;;;;;;13.80;8.18;;;;;;;;;;5132985;27;20047;-82
2023/05/08 11:56:47;;;;;;;12.50;8.68;;;;;;;;;;5114707;27;20069;-78
2023/05/08 11:59:13;;;;;;;13.40;8.52;;;;;;;;;;5122422;27;20131;-78
2023/05/08 12:01:39;;;;;;;14.95;8.48;;;;;;;;;;5114607;27;20075;-79
2023/05/08 12:04:06;;;;;;;13.20;8.50;;;;;;;;;;5114171;27;20556;-76
2023/05/08 12:06:33;;;;;;;15.95;8.93;;;;;;;;;;5131097;27;20377;-77
2023/05/08 12:09:00;;;;;;;19.13;8.27;;;;;;;;;;5131541;27;20146;-77
2023/05/08 12:11:26;;;;;;;12.98;8.90;;;;;;;;;;5131620;27;20634;-77
2023/05/08 12:13:53;;;;;;;13.15;8.98;;;;;;;;;;5097245;27;20099;-76
2023/05/08 12:16:20;;;;;;;11.70;8.75;;;;;;;;;;5132665;27;20043;-81
2023/05/08 12:18:49;;;;;;;12.23;8.98;;;;;;;;;;5131803;27;20163;-76
2023/05/08 12:21:15;;;;;;;12.32;8.82;;;;;;;;;;5131921;27;20047;-76
2023/05/08 12:23:41;;;;;;;13.52;8.55;;;28.70;70.60;;;;;;5132094;27;20046;-76
2023/05/08 12:26:07;;;;;;;13.95;8.90;;;28.30;74.40;;;;;;5114264;27;20047;-77
2023/05/08 12:28:33;;;;;;;14.07;9.60;;;27.80;74.70;;;;;;5130852;27;20756;-76
2023/05/08 12:31:00;;;;;;;13.20;9.52;;;27.50;74.70;;;;;;5113599;27;20713;-76
2023/05/08 12:33:27;;;;;;;15.25;8.82;;;27.60;75.40;;;;;;5131442;27;20055;-76
2023/05/08 12:35:54;;;;;;;12.55;9.30;;;27.80;74.80;;;;;;5131905;27;20047;-76
2023/05/08 12:38:25;;;;;;;15.48;9.65;;;27.80;73.70;;;;;;5132415;27;20055;-76
2023/05/08 12:40:51;;;;;;;14.55;9.40;;;27.50;72.10;;;;;;5132359;27;20122;-76
2023/05/08 12:43:18;;;;;;;14.13;10.02;;;27.10;72.30;;;;;;5131235;27;20118;-76
2023/05/08 12:45:43;;;;;;;14.40;9.68;;;26.40;72.80;;;;;;5113630;27;20629;-76
2023/05/08 12:48:16;;;;;;;13.70;9.48;;;26.00;74.80;;;;;;5112957;27;20096;-77
2023/05/08 12:50:44;;;;;;;14.75;9.93;;;26.00;75.20;;;;;;5112902;27;20495;-76
2023/05/08 12:53:18;;;;;;;15.65;10.80;;;26.00;75.40;;;;;;5097107;27;20054;-76
2023/05/08 12:55:54;;;;;;;15.15;9.60;;;25.70;75.70;;;;;;5113396;27;20065;-76
2023/05/08 12:58:24;;;;;;;15.98;10.00;;;25.50;76.80;;;;;;5116470;27;20104;-76
2023/05/08 13:00:51;;;;;;;14.63;9.80;;;25.30;78.40;;;;;;5133186;27;20038;-75